Time;durP1;ratioP1;P1;durP2;ratioP2;P2;SDS_P1;SDS_P2;PMS_P1;PMS_P2;Temp;Humidity;BMP_temperature;BMP_pressure;BME280_temperature;BME280_humidity;BME280_pressure;Samples;Min_cycle;Max_cycle;Signal;HPM_P1;HPM_P2
2020/12/24 00:01:57;;;;;;;24.25;3.78;;;19.00;16.70;;;;;;5045836;28;20057;-62
2020/12/24 00:04:24;;;;;;;;;;;18.90;16.40;;;;;;5040107;28;20021;-61
2020/12/24 00:06:50;;;;;;;17.38;3.17;;;18.80;15.80;;;;;;5041429;28;19962;-62
2020/12/24 00:09:17;;;;;;;22.50;3.22;;;18.70;15.90;;;;;;5043435;28;20025;-63
2020/12/24 00:11:43;;;;;;;20.95;3.00;;;18.60;15.90;;;;;;5046005;28;20029;-62
2020/12/24 00:14:10;;;;;;;21.35;3.05;;;18.60;15.80;;;;;;5044812;28;20024;-64
2020/12/24 00:16:37;;;;;;;12.95;2.17;;;18.50;15.30;;;;;;5043271;28;20021;-64
2020/12/24 00:19:03;;;;;;;;;;;18.40;15.20;;;;;;5043270;28;20465;-61
2020/12/24 00:21:35;;;;;;;16.13;2.60;;;18.40;15.40;;;;;;5046597;28;19944;-62
2020/12/24 00:24:02;;;;;;;21.45;2.95;;;18.30;15.50;;;;;;5042432;28;20025;-62
2020/12/24 00:26:28;;;;;;;16.02;3.78;;;18.20;15.90;;;;;;5043057;28;20090;-62
2020/12/24 00:28:55;;;;;;;22.13;3.33;;;18.10;16.30;;;;;;5043011;28;20025;-62
2020/12/24 00:31:21;;;;;;;13.88;2.83;;;17.90;16.60;;;;;;5045100;28;20485;-61
2020/12/24 00:33:47;;;;;;;;;;;17.90;17.20;;;;;;5043439;28;20025;-61
2020/12/24 00:36:14;;;;;;;14.80;3.38;;;17.80;17.50;;;;;;5046217;28;19913;-61
2020/12/24 00:38:41;;;;;;;15.70;2.92;;;17.70;18.00;;;;;;5040184;28;20029;-62
2020/12/24 00:41:07;;;;;;;;;;;17.60;18.20;;;;;;5043137;28;20044;-60
2020/12/24 00:43:34;;;;;;;21.90;2.95;;;17.50;18.40;;;;;;5045761;28;19909;-60
2020/12/24 00:46:01;;;;;;;27.17;3.67;;;17.40;18.80;;;;;;5038012;28;20083;-61
2020/12/24 00:48:28;;;;;;;17.83;3.70;;;17.30;18.80;;;;;;5048558;28;20025;-61
2020/12/24 00:50:54;;;;;;;;;;;17.20;18.90;;;;;;5048018;28;20020;-61
2020/12/24 00:53:20;;;;;;;22.88;3.60;;;17.10;19.30;;;;;;5044636;28;20396;-61
2020/12/24 00:55:47;;;;;;;15.95;3.90;;;17.00;19.30;;;;;;5041850;28;20025;-58
2020/12/24 00:58:13;;;;;;;14.07;3.58;;;16.90;19.40;;;;;;5040484;28;20032;-59
2020/12/24 01:00:39;;;;;;;;;;;16.90;19.30;;;;;;5044851;28;20098;-62
2020/12/24 01:03:06;;;;;;;72.70;4.80;;;16.80;19.80;;;;;;5045255;28;20335;-59
2020/12/24 01:05:33;;;;;;;;;;;16.70;19.20;;;;;;5043499;28;20060;-62
2020/12/24 01:08:00;;;;;;;29.38;3.17;;;16.60;19.30;;;;;;5043432;28;19909;-60
2020/12/24 01:10:27;;;;;;;42.03;3.05;;;16.60;19.20;;;;;;5039443;28;20465;-60
2020/12/24 01:12:53;;;;;;;30.40;2.83;;;16.50;19.20;;;;;;5039989;28;20025;-58
2020/12/24 01:15:20;;;;;;;50.50;4.63;;;16.50;18.90;;;;;;5042683;28;20025;-61
2020/12/24 01:17:47;;;;;;;24.55;4.57;;;16.50;18.80;;;;;;5048503;28;20024;-60
2020/12/24 01:20:14;;;;;;;12.30;2.38;;;16.40;18.70;;;;;;5045446;28;20049;-59
2020/12/24 01:22:40;;;;;;;10.93;2.58;;;16.50;17.50;;;;;;5041447;28;20061;-60
2020/12/24 01:25:07;;;;;;;17.08;2.05;;;16.50;17.60;;;;;;5042375;28;20063;-61
2020/12/24 01:27:33;;;;;;;;;;;16.40;17.30;;;;;;5045566;28;20025;-59
2020/12/24 01:30:00;;;;;;;21.27;1.67;;;16.40;17.40;;;;;;5046490;28;19941;-61
2020/12/24 01:32:30;;;;;;;27.00;2.00;;;16.30;17.30;;;;;;5044467;28;20021;-62
2020/12/24 01:34:56;;;;;;;17.55;1.70;;;16.30;17.40;;;;;;5045714;28;20025;-62
2020/12/24 01:37:23;;;;;;;;;;;16.30;17.10;;;;;;5038863;28;20049;-63
2020/12/24 01:39:49;;;;;;;30.60;2.50;;;16.30;17.10;;;;;;5074371;28;20012;-63
2020/12/24 01:42:19;;;;;;;23.15;2.35;;;16.30;17.00;;;;;;5041342;28;20504;-61
2020/12/24 01:44:48;;;;;;;20.67;2.20;;;16.30;17.10;;;;;;5041447;28;20493;-61
2020/12/24 01:47:15;;;;;;;23.67;2.53;;;16.30;17.40;;;;;;5042525;28;20040;-64
2020/12/24 01:49:42;;;;;;;18.23;2.30;;;16.20;17.10;;;;;;5043917;28;20028;-63
2020/12/24 01:52:30;;;;;;;16.15;2.53;;;16.20;17.50;;;;;;5046423;28;20029;-61
2020/12/24 01:54:57;;;;;;;27.38;2.55;;;16.10;18.00;;;;;;5047100;28;20028;-61
2020/12/24 01:57:24;;;;;;;29.65;3.88;;;16.10;18.30;;;;;;5046496;28;20025;-60
2020/12/24 01:59:50;;;;;;;25.25;3.55;;;16.10;18.30;;;;;;5038629;28;20021;-58
2020/12/24 02:02:16;;;;;;;;;;;16.00;18.20;;;;;;5060212;28;20040;-62
2020/12/24 02:04:43;;;;;;;18.52;3.58;;;15.90;18.80;;;;;;5045417;28;19989;-61
2020/12/24 02:07:09;;;;;;;;;;;15.90;19.00;;;;;;5048605;28;20032;-63
2020/12/24 02:09:36;;;;;;;17.40;3.70;;;15.80;19.20;;;;;;5046334;28;19955;-63
2020/12/24 02:12:05;;;;;;;24.85;3.22;;;15.80;19.10;;;;;;5046112;28;20029;-60
2020/12/24 02:14:32;;;;;;;19.65;3.95;;;15.70;19.20;;;;;;5043454;28;20369;-61
2020/12/24 02:16:58;;;;;;;;;;;15.60;19.90;;;;;;5066395;28;20362;-59
2020/12/24 02:19:25;;;;;;;21.45;3.75;;;15.60;20.00;;;;;;5044339;28;19913;-63
2020/12/24 02:21:51;;;;;;;;;;;15.40;20.10;;;;;;5044927;28;20034;-63
2020/12/24 02:24:17;;;;;;;17.10;3.25;;;15.40;20.60;;;;;;5047528;28;19960;-63
2020/12/24 02:26:44;;;;;;;17.10;2.88;;;15.40;20.40;;;;;;5044158;28;20120;-62
2020/12/24 02:29:10;;;;;;;7.25;2.20;;;15.30;20.30;;;;;;5058589;28;20032;-62
2020/12/24 02:31:37;;;;;;;;;;;15.20;20.50;;;;;;5043674;28;20033;-63
2020/12/24 02:34:03;;;;;;;19.45;2.80;;;15.20;20.90;;;;;;5049001;28;19995;-66
2020/12/24 02:36:29;;;;;;;;;;;15.20;21.10;;;;;;5052618;28;20109;-63
2020/12/24 02:38:56;;;;;;;15.15;3.47;;;15.10;21.20;;;;;;5044765;28;19963;-63
2020/12/24 02:41:22;;;;;;;;;;;15.10;21.20;;;;;;5042513;28;20112;-61
2020/12/24 02:43:50;;;;;;;20.92;7.68;;;15.00;21.30;;;;;;5044802;28;19956;-61
2020/12/24 02:46:17;;;;;;;25.38;7.25;;;14.90;21.30;;;;;;5050885;28;20339;-63
2020/12/24 02:48:44;;;;;;;20.15;4.82;;;14.90;21.50;;;;;;5048225;28;20024;-61
2020/12/24 02:51:11;;;;;;;16.95;3.30;;;14.90;21.70;;;;;;5045855;28;20026;-61
2020/12/24 02:53:37;;;;;;;15.20;3.38;;;14.90;21.70;;;;;;5046196;28;20025;-62
2020/12/24 02:56:04;;;;;;;19.52;3.30;;;14.80;21.70;;;;;;5048433;28;20029;-61
2020/12/24 02:58:30;;;;;;;;;;;14.80;22.10;;;;;;5045991;28;20056;-62
2020/12/24 03:00:57;;;;;;;14.18;2.72;;;14.70;22.50;;;;;;5060282;28;20330;-63
2020/12/24 03:03:27;;;;;;;12.25;2.55;;;14.70;22.40;;;;;;5050785;28;20033;-62
2020/12/24 03:05:54;;;;;;;15.52;2.17;;;14.60;22.50;;;;;;5046086;28;20033;-62
2020/12/24 03:08:24;;;;;;;13.40;2.88;;;14.60;22.50;;;;;;5041843;28;20020;-61
2020/12/24 03:10:50;;;;;;;15.48;2.58;;;14.50;22.70;;;;;;5046016;28;20580;-63
2020/12/24 03:13:17;;;;;;;20.23;2.95;;;14.40;22.80;;;;;;5041344;28;20034;-62
2020/12/24 03:15:44;;;;;;;23.55;3.25;;;14.40;22.30;;;;;;5045306;28;20025;-63
2020/12/24 03:18:10;;;;;;;;;;;14.40;22.40;;;;;;5047229;28;20163;-62
2020/12/24 03:20:36;;;;;;;12.93;1.88;;;14.30;22.10;;;;;;5047132;28;19917;-62
2020/12/24 03:25:11;;;;;;;13.10;1.67;;;14.40;22.20;;;;;;5094479;27;20133;-62
2020/12/24 03:27:38;;;;;;;19.58;1.92;;;14.30;21.60;;;;;;5078498;28;20389;-61
2020/12/24 03:30:06;;;;;;;9.82;2.20;;;14.40;21.60;;;;;;5079270;28;20078;-62
2020/12/24 03:32:32;;;;;;;16.90;2.58;;;14.40;21.80;;;;;;5081056;28;20021;-60
2020/12/24 03:34:59;;;;;;;14.20;2.67;;;14.30;22.00;;;;;;5075895;28;20017;-62
2020/12/24 03:37:25;;;;;;;;;;;14.40;22.10;;;;;;5081865;28;20036;-62
2020/12/24 03:39:51;;;;;;;14.25;3.05;;;14.30;22.20;;;;;;5082226;28;19919;-63
2020/12/24 03:42:18;;;;;;;17.83;3.25;;;14.30;22.20;;;;;;5082469;28;20066;-61
2020/12/24 03:44:45;;;;;;;14.05;2.22;;;14.20;22.10;;;;;;5083453;28;20107;-62
2020/12/24 03:47:11;;;;;;;;;;;14.20;22.30;;;;;;5087065;28;20089;-62
2020/12/24 03:49:37;;;;;;;8.38;1.05;;;14.20;22.00;;;;;;5084888;28;20352;-62
2020/12/24 03:52:04;;;;;;;15.65;1.30;;;14.20;21.30;;;;;;5078868;28;20196;-62
2020/12/24 03:54:30;;;;;;;;;;;14.20;21.20;;;;;;5082489;28;20019;-62
2020/12/24 03:56:56;;;;;;;8.75;1.73;;;14.20;21.40;;;;;;5082162;28;19908;-61
2020/12/24 03:59:23;;;;;;;10.63;1.60;;;14.20;21.60;;;;;;5080139;28;20048;-62
2020/12/24 04:01:49;;;;;;;;;;;14.20;21.70;;;;;;5082507;28;20031;-61
2020/12/24 04:04:15;;;;;;;7.35;1.30;;;14.10;21.60;;;;;;5081618;28;19970;-62
2020/12/24 04:06:42;;;;;;;;;;;14.10;21.50;;;;;;5081814;28;20083;-61
2020/12/24 04:09:08;;;;;;;14.98;2.15;;;14.10;21.40;;;;;;5082032;28;19993;-62
2020/12/24 04:11:34;;;;;;;;;;;14.10;21.30;;;;;;5074573;28;20040;-61
2020/12/24 04:14:01;;;;;;;5.63;1.85;;;14.10;21.40;;;;;;5081318;28;19912;-62
2020/12/24 04:16:27;;;;;;;10.50;2.05;;;14.10;21.30;;;;;;5083998;28;20020;-61
2020/12/24 04:18:53;;;;;;;;;;;14.10;21.50;;;;;;5080096;28;20075;-61
2020/12/24 04:21:20;;;;;;;9.98;1.90;;;14.00;21.10;;;;;;5075941;28;20012;-65
2020/12/24 04:23:47;;;;;;;7.30;1.88;;;14.00;21.00;;;;;;5076387;28;20083;-61
2020/12/24 04:26:22;;;;;;;;;;;14.00;21.10;;;;;;5077715;28;20024;-63
2020/12/24 04:28:50;;;;;;;14.75;3.00;;;13.90;21.20;;;;;;5081623;28;19915;-62
2020/12/24 04:31:17;;;;;;;17.30;3.40;;;13.90;21.50;;;;;;5078552;28;20020;-60
2020/12/24 04:33:45;;;;;;;16.00;3.03;;;13.90;21.90;;;;;;5078449;28;20028;-61
2020/12/24 04:36:15;;;;;;;11.60;2.10;;;13.90;22.40;;;;;;5069673;28;20021;-63
2020/12/24 04:38:42;;;;;;;11.15;2.63;;;13.80;21.90;;;;;;5061435;28;20044;-62
2020/12/24 04:41:10;;;;;;;12.95;2.63;;;13.80;21.70;;;;;;5065074;28;20039;-62
2020/12/24 04:43:40;;;;;;;16.98;2.80;;;13.70;21.60;;;;;;5069182;28;20063;-62
2020/12/24 04:46:07;;;;;;;12.05;3.15;;;13.70;21.50;;;;;;5064226;28;20513;-62
2020/12/24 04:48:34;;;;;;;15.40;4.03;;;13.70;21.90;;;;;;5067107;28;20039;-65
2020/12/24 04:51:02;;;;;;;8.40;2.00;;;13.70;22.50;;;;;;5068364;28;20028;-62
2020/12/24 04:53:29;;;;;;;12.50;1.55;;;13.70;22.60;;;;;;5067715;28;20017;-65
2020/12/24 04:55:56;;;;;;;11.70;1.65;;;13.60;22.20;;;;;;5062702;28;20120;-61
2020/12/24 04:58:23;;;;;;;10.15;1.42;;;13.60;22.20;;;;;;5067944;28;20078;-59
2020/12/24 05:00:52;;;;;;;12.38;1.80;;;13.50;22.60;;;;;;5061726;28;20033;-64
2020/12/24 05:03:21;;;;;;;15.80;3.92;;;13.40;21.90;;;;;;5066130;28;20055;-64
2020/12/24 05:05:47;;;;;;;10.18;3.25;;;13.40;21.80;;;;;;5066466;28;20095;-60
2020/12/24 05:08:13;;;;;;;;;;;13.40;21.90;;;;;;5068598;28;20027;-64
2020/12/24 05:10:40;;;;;;;9.40;3.30;;;13.30;22.10;;;;;;5067026;28;19953;-62
2020/12/24 05:13:18;;;;;;;15.02;3.75;;;13.30;22.20;;;;;;5061073;28;20096;-62
2020/12/24 05:15:45;;;;;;;13.55;2.70;;;13.30;22.50;;;;;;5068383;28;20028;-62
2020/12/24 05:18:23;;;;;;;11.88;2.10;;;13.30;22.60;;;;;;5065094;28;20036;-65
2020/12/24 05:20:51;;;;;;;15.88;2.50;;;13.30;23.10;;;;;;5068965;28;20025;-63
2020/12/24 05:23:20;;;;;;;16.88;2.97;;;13.20;23.00;;;;;;5062462;28;20041;-63
2020/12/24 05:25:48;;;;;;;10.63;2.33;;;13.20;23.10;;;;;;5061183;28;20081;-60
2020/12/24 05:28:29;;;;;;;13.75;2.33;;;13.20;22.80;;;;;;5063184;28;20031;-62
2020/12/24 05:30:56;;;;;;;12.70;2.65;;;13.20;21.80;;;;;;5062824;28;20112;-62
2020/12/24 05:33:27;;;;;;;12.30;1.75;;;13.10;21.70;;;;;;5069345;28;20020;-60
2020/12/24 05:36:13;;;;;;;10.35;1.95;;;13.20;21.70;;;;;;5065651;28;20050;-60
2020/12/24 05:38:39;;;;;;;11.88;2.08;;;13.20;21.50;;;;;;5065173;28;20025;-62
2020/12/24 05:41:24;;;;;;;;;;;13.20;21.10;;;;;;5067210;28;20481;-63
2020/12/24 05:44:22;;;;;;;9.70;1.77;;;13.10;20.90;;;;;;5065937;28;21363;-61
2020/12/24 05:46:49;;;;;;;14.27;5.63;;;13.10;20.90;;;;;;5065169;28;20071;-61
2020/12/24 05:49:20;;;;;;;9.63;5.05;;;13.10;21.10;;;;;;5067758;28;20370;-63
2020/12/24 05:51:48;;;;;;;47.55;22.02;;;13.10;21.60;;;;;;5063792;28;20075;-64
2020/12/24 05:54:16;;;;;;;41.45;15.73;;;13.10;21.60;;;;;;5067539;28;20116;-61
2020/12/24 05:56:44;;;;;;;23.42;7.30;;;13.00;21.90;;;;;;5064786;28;20078;-63
2020/12/24 05:59:29;;;;;;;16.17;5.40;;;13.00;22.10;;;;;;5061328;28;20025;-63
2020/12/24 06:01:56;;;;;;;16.83;4.40;;;13.00;21.80;;;;;;5058756;28;20468;-62
2020/12/24 06:04:46;;;;;;;21.70;4.65;;;13.00;21.60;;;;;;5063494;28;20086;-63
2020/12/24 06:07:19;;;;;;;18.00;3.70;;;13.00;22.50;;;;;;5062293;28;20032;-63
2020/12/24 06:09:50;;;;;;;18.05;4.32;;;12.90;22.50;;;;;;5064024;28;20043;-61
2020/12/24 06:12:23;;;;;;;27.00;4.82;;;12.80;22.30;;;;;;5063500;28;20027;-62
2020/12/24 06:14:56;;;;;;;15.43;4.30;;;12.70;22.40;;;;;;5060116;28;20130;-62
2020/12/24 06:17:27;;;;;;;23.92;4.80;;;12.80;23.10;;;;;;5062118;28;20024;-61
2020/12/24 06:19:53;;;;;;;14.40;4.75;;;12.70;23.10;;;;;;5062884;28;20116;-64
2020/12/24 06:22:22;;;;;;;22.13;4.88;;;12.70;23.50;;;;;;5063714;28;20110;-60
2020/12/24 06:25:01;;;;;;;30.73;5.72;;;12.70;24.10;;;;;;5061646;28;20040;-62
2020/12/24 06:27:33;;;;;;;25.52;5.85;;;12.70;24.50;;;;;;5060160;28;20540;-62
2020/12/24 06:30:07;;;;;;;29.25;6.10;;;12.60;24.20;;;;;;5061879;28;20047;-61
2020/12/24 06:32:36;;;;;;;23.33;6.47;;;12.60;24.80;;;;;;5061258;28;20020;-61
2020/12/24 06:35:03;;;;;;;31.50;6.07;;;12.50;24.80;;;;;;5065011;28;20322;-62
2020/12/24 06:37:39;;;;;;;35.90;6.97;;;12.40;24.90;;;;;;5059923;28;20107;-61
2020/12/24 06:40:07;;;;;;;25.80;7.40;;;12.30;25.20;;;;;;5066482;28;20028;-63
2020/12/24 06:42:37;;;;;;;27.77;6.32;;;12.30;25.50;;;;;;5067389;28;20067;-60
2020/12/24 06:45:13;;;;;;;36.92;6.88;;;12.30;25.70;;;;;;5066324;28;20071;-60
2020/12/24 06:47:40;;;;;;;23.35;6.43;;;12.30;26.00;;;;;;5060055;28;20029;-61
2020/12/24 06:50:36;;;;;;;29.85;5.82;;;12.30;26.30;;;;;;5063593;28;20165;-62
2020/12/24 06:53:23;;;;;;;28.20;6.35;;;12.30;26.80;;;;;;5061724;28;20507;-62
2020/12/24 06:56:08;;;;;;;;;;;12.20;26.90;;;;;;5063636;28;20033;-61
2020/12/24 06:58:51;;;;;;;30.10;5.05;;;12.10;26.90;;;;;;5063114;28;20390;-60
2020/12/24 07:01:22;;;;;;;22.90;4.63;;;12.00;26.50;;;;;;5061145;28;20035;-61
2020/12/24 07:03:50;;;;;;;32.80;5.88;;;12.00;26.70;;;;;;5059613;28;20029;-60
2020/12/24 07:06:42;;;;;;;35.42;6.30;;;12.00;27.30;;;;;;5062992;28;20035;-61
2020/12/24 07:09:32;;;;;;;39.00;6.72;;;12.00;27.70;;;;;;5062866;28;20058;-63
2020/12/24 07:12:00;;;;;;;40.25;7.85;;;12.00;27.40;;;;;;5061890;28;20035;-61
2020/12/24 07:14:29;;;;;;;27.42;6.32;;;11.80;27.10;;;;;;5069330;28;20142;-60
2020/12/24 07:17:06;;;;;;;21.88;6.30;;;11.80;27.80;;;;;;5064013;28;20392;-59
2020/12/24 07:19:35;;;;;;;19.52;5.90;;;11.80;28.00;;;;;;5064386;28;20028;-61
2020/12/24 07:22:06;;;;;;;28.85;5.65;;;11.70;27.90;;;;;;5066278;28;20040;-63
2020/12/24 07:24:33;;;;;;;35.30;5.68;;;11.70;28.20;;;;;;5063319;28;20102;-61
2020/12/24 07:27:01;;;;;;;31.02;5.78;;;11.60;27.80;;;;;;5063692;28;20035;-61
2020/12/24 07:29:30;;;;;;;29.33;5.32;;;11.70;27.90;;;;;;5063788;28;20041;-61
2020/12/24 07:32:00;;;;;;;21.80;5.15;;;11.60;28.30;;;;;;5063166;28;20050;-61
2020/12/24 07:34:28;;;;;;;23.48;5.28;;;11.60;28.50;;;;;;5062554;28;20047;-62
2020/12/24 07:36:55;;;;;;;26.42;4.72;;;11.50;28.30;;;;;;5066792;28;20081;-58
2020/12/24 07:39:22;;;;;;;;;;;11.50;28.90;;;;;;5067025;28;20113;-62
2020/12/24 07:41:48;;;;;;;24.85;5.13;;;11.50;29.20;;;;;;5064694;28;19908;-62
2020/12/24 07:44:18;;;;;;;29.95;4.32;;;11.40;29.40;;;;;;5066232;28;20068;-61
2020/12/24 07:46:45;;;;;;;29.10;4.78;;;11.30;29.00;;;;;;5065950;28;20046;-60
2020/12/24 07:49:13;;;;;;;23.17;4.20;;;11.30;29.30;;;;;;5063230;28;20145;-62
2020/12/24 07:51:40;;;;;;;17.38;4.13;;;11.30;29.80;;;;;;5065895;28;20107;-59
2020/12/24 07:54:17;;;;;;;24.40;4.95;;;11.30;29.80;;;;;;5062304;28;20074;-60
2020/12/24 07:56:47;;;;;;;35.15;5.85;;;11.20;29.80;;;;;;5060767;28;20040;-61
2020/12/24 07:59:17;;;;;;;29.80;5.85;;;11.20;29.40;;;;;;5063854;28;20042;-60
2020/12/24 08:01:44;;;;;;;36.28;6.15;;;11.20;29.10;;;;;;5065006;28;20046;-62
2020/12/24 08:04:10;;;;;;;28.30;5.40;;;11.30;29.40;;;;;;5061401;28;20085;-60
2020/12/24 08:06:37;;;;;;;26.73;5.85;;;11.30;29.40;;;;;;5060628;28;20033;-62
2020/12/24 08:09:12;;;;;;;;;;;11.20;29.00;;;;;;5068243;28;21336;-61
2020/12/24 08:11:40;;;;;;;25.05;4.93;;;11.20;29.60;;;;;;5073927;28;19972;-60
2020/12/24 08:14:06;;;;;;;26.40;5.45;;;11.20;29.70;;;;;;5066255;28;20044;-61
2020/12/24 08:16:37;;;;;;;30.10;5.35;;;11.20;30.00;;;;;;5070737;28;20059;-63
2020/12/24 08:19:13;;;;;;;27.08;5.13;;;11.20;30.40;;;;;;5065770;28;20128;-61
2020/12/24 08:22:10;;;;;;;42.22;6.82;;;11.10;29.70;;;;;;5062786;28;20045;-61
2020/12/24 08:24:39;;;;;;;29.55;6.50;;;11.10;29.40;;;;;;5068248;28;20076;-61
2020/12/24 08:27:06;;;;;;;30.33;6.20;;;11.10;30.60;;;;;;5085649;28;20038;-62
2020/12/24 08:29:33;;;;;;;38.30;5.65;;;11.10;29.60;;;;;;5064611;28;20033;-61
2020/12/24 08:32:02;;;;;;;32.50;5.80;;;11.00;29.80;;;;;;5065635;28;20098;-61
2020/12/24 08:34:29;;;;;;;41.38;6.25;;;11.00;29.70;;;;;;5064606;28;20045;-61
2020/12/24 08:36:56;;;;;;;35.85;7.45;;;11.00;29.70;;;;;;5065458;28;20044;-62
2020/12/24 08:39:28;;;;;;;42.58;10.20;;;11.10;29.90;;;;;;5068504;28;20044;-61
2020/12/24 08:41:58;;;;;;;46.63;9.48;;;11.00;29.30;;;;;;5087145;28;20468;-62
2020/12/24 08:44:25;;;;;;;36.80;8.52;;;11.00;29.40;;;;;;5067858;28;20052;-61
2020/12/24 08:47:10;;;;;;;52.92;10.15;;;11.00;29.30;;;;;;5070351;28;20083;-62
2020/12/24 08:49:42;;;;;;;44.70;11.43;;;11.00;29.60;;;;;;5068366;28;20044;-62
2020/12/24 08:52:09;;;;;;;45.25;12.68;;;11.00;29.90;;;;;;5063013;28;20043;-62
2020/12/24 08:54:36;;;;;;;43.97;14.90;;;11.00;30.50;;;;;;5066298;28;20165;-60
2020/12/24 08:57:04;;;;;;;76.38;31.40;;;11.00;30.50;;;;;;5066356;28;20037;-63
2020/12/24 08:59:31;;;;;;;71.47;36.92;;;10.90;30.00;;;;;;5068601;28;20036;-62
2020/12/24 09:01:58;;;;;;;;;;;10.90;30.00;;;;;;5067827;28;20042;-61
2020/12/24 09:04:25;;;;;;;94.13;38.33;;;10.90;30.30;;;;;;5067590;28;19966;-63
2020/12/24 09:06:52;;;;;;;73.13;29.02;;;10.80;30.20;;;;;;5050078;28;20467;-62
2020/12/24 09:09:26;;;;;;;77.45;27.85;;;10.70;31.10;;;;;;5048102;28;20045;-63
2020/12/24 09:11:54;;;;;;;65.75;22.20;;;10.70;31.30;;;;;;5065408;28;20049;-60
2020/12/24 09:14:23;;;;;;;59.95;17.27;;;10.70;31.80;;;;;;5068440;28;20069;-61
2020/12/24 09:17:00;;;;;;;44.30;11.88;;;10.70;32.30;;;;;;5066183;28;20380;-60
2020/12/24 09:19:27;;;;;;;31.75;8.95;;;10.80;31.60;;;;;;5062734;28;20040;-62
2020/12/24 09:21:58;;;;;;;43.42;8.65;;;10.70;31.50;;;;;;5065865;28;20133;-62
2020/12/24 09:24:26;;;;;;;43.25;9.02;;;10.70;30.30;;;;;;5062837;28;20087;-62
2020/12/24 09:26:55;;;;;;;52.15;9.60;;;10.80;30.80;;;;;;5083858;28;20037;-63
2020/12/24 09:29:23;;;;;;;47.88;8.35;;;10.80;31.00;;;;;;5066085;28;20044;-62
2020/12/24 09:31:55;;;;;;;47.00;9.18;;;10.80;30.30;;;;;;5063619;28;20047;-61
2020/12/24 09:34:21;;;;;;;40.40;8.50;;;10.90;30.90;;;;;;5095039;28;20427;-62
2020/12/24 09:36:49;;;;;;;65.95;9.82;;;10.80;30.70;;;;;;5063272;28;20362;-60
2020/12/24 09:39:16;;;;;;;55.97;11.23;;;10.70;29.90;;;;;;5065814;28;20462;-62
2020/12/24 09:41:44;;;;;;;60.35;12.40;;;10.80;30.00;;;;;;5064877;28;20037;-62
2020/12/24 09:44:12;;;;;;;47.33;11.48;;;10.80;30.10;;;;;;5064976;28;20092;-62
2020/12/24 09:46:40;;;;;;;53.65;11.55;;;10.80;30.70;;;;;;5069369;28;20056;-59
2020/12/24 09:49:07;;;;;;;47.08;11.63;;;10.80;31.60;;;;;;5066220;28;20048;-60
2020/12/24 09:51:35;;;;;;;54.10;10.90;;;10.90;32.10;;;;;;5065529;28;20548;-61
2020/12/24 09:54:03;;;;;;;48.13;12.13;;;10.90;32.20;;;;;;5063902;28;20057;-62
2020/12/24 09:56:30;;;;;;;60.72;12.25;;;10.90;31.20;;;;;;5048487;28;20061;-59
2020/12/24 09:58:56;;;;;;;;;;;10.90;31.20;;;;;;5065337;28;20044;-61
2020/12/24 10:01:22;;;;;;;49.08;12.75;;;10.90;31.20;;;;;;5064300;28;20022;-60
2020/12/24 10:03:49;;;;;;;45.88;12.45;;;10.90;31.50;;;;;;5061900;28;20511;-59
2020/12/24 10:06:15;;;;;;;;;;;10.90;31.30;;;;;;5063058;28;20033;-62
2020/12/24 10:08:42;;;;;;;50.92;12.77;;;10.90;31.00;;;;;;5063857;28;19912;-57
2020/12/24 10:11:12;;;;;;;;;;;10.90;30.60;;;;;;5063957;28;20040;-58
2020/12/24 10:13:39;;;;;;;46.28;10.35;;;10.90;31.30;;;;;;5095992;28;19938;-62
2020/12/24 10:16:05;;;;;;;41.35;9.02;;;10.90;30.60;;;;;;5067830;28;20112;-61
2020/12/24 10:18:31;;;;;;;;;;;10.80;30.90;;;;;;5062571;28;20046;-60
2020/12/24 10:20:58;;;;;;;40.85;8.48;;;10.90;31.10;;;;;;5082751;28;19923;-61
2020/12/24 10:23:24;;;;;;;;;;;10.90;30.80;;;;;;5061492;28;20084;-60
2020/12/24 10:25:51;;;;;;;46.08;8.88;;;10.90;31.00;;;;;;5063960;28;20370;-61
2020/12/24 10:28:17;;;;;;;;;;;10.90;31.10;;;;;;5063437;28;20519;-60
2020/12/24 10:30:44;;;;;;;40.05;7.80;;;10.90;30.40;;;;;;5064950;28;19955;-60
2020/12/24 10:33:11;;;;;;;47.83;8.68;;;10.90;30.60;;;;;;5059622;28;20037;-58
2020/12/24 10:35:41;;;;;;;58.30;8.80;;;10.90;29.30;;;;;;5063228;28;20033;-60
2020/12/24 10:38:07;;;;;;;44.55;9.27;;;10.90;30.40;;;;;;5061963;28;20057;-60
2020/12/24 10:40:35;;;;;;;39.97;8.43;;;10.80;30.60;;;;;;5063132;28;20417;-62
2020/12/24 10:43:03;;;;;;;39.78;8.57;;;10.80;29.60;;;;;;5063313;28;20052;-59
2020/12/24 10:45:30;;;;;;;33.70;7.70;;;10.80;28.70;;;;;;5069235;28;20086;-62
2020/12/24 10:47:56;;;;;;;;;;;10.90;28.70;;;;;;5065563;28;20076;-62
2020/12/24 10:50:22;;;;;;;27.25;7.28;;;10.90;29.70;;;;;;5065346;28;20331;-61
2020/12/24 10:52:48;;;;;;;;;;;10.90;28.90;;;;;;5059600;28;20366;-61
2020/12/24 10:55:15;;;;;;;32.80;6.10;;;11.00;28.90;;;;;;5064177;28;19992;-58
2020/12/24 10:57:41;;;;;;;32.28;6.22;;;11.00;28.60;;;;;;5060878;28;20037;-58
2020/12/24 11:00:09;;;;;;;;;;;11.00;28.30;;;;;;5065305;28;20041;-61
2020/12/24 11:02:37;;;;;;;19.90;5.22;;;11.00;29.00;;;;;;5061654;28;19939;-62
2020/12/24 11:05:06;;;;;;;30.05;7.03;;;11.10;30.20;;;;;;5065591;28;20074;-60
2020/12/24 11:07:34;;;;;;;30.67;7.18;;;11.10;29.50;;;;;;5063656;28;20077;-61
2020/12/24 11:10:00;;;;;;;29.42;7.75;;;11.00;29.40;;;;;;5060889;28;20032;-60
2020/12/24 11:12:26;;;;;;;;;;;11.00;30.10;;;;;;5061168;28;20505;-58
2020/12/24 11:14:53;;;;;;;25.98;7.53;;;10.90;30.00;;;;;;5064143;28;19920;-60
2020/12/24 11:17:19;;;;;;;;;;;11.00;29.10;;;;;;5068018;28;20035;-59
2020/12/24 11:19:46;;;;;;;31.15;8.60;;;11.00;29.40;;;;;;5063262;28;20037;-61
2020/12/24 11:22:13;;;;;;;27.42;8.15;;;11.00;30.00;;;;;;5063785;28;20049;-61
2020/12/24 11:24:40;;;;;;;21.23;8.00;;;11.00;29.60;;;;;;5046038;28;20599;-61
2020/12/24 11:27:07;;;;;;;24.45;8.25;;;11.00;29.50;;;;;;5063293;28;20035;-60
2020/12/24 11:29:33;;;;;;;35.70;8.50;;;11.10;29.80;;;;;;5062954;28;20059;-61
2020/12/24 11:32:00;;;;;;;;;;;11.00;30.70;;;;;;5065805;28;20112;-58
2020/12/24 11:34:29;;;;;;;33.10;7.93;;;11.00;30.00;;;;;;5060514;28;19925;-60
2020/12/24 11:36:59;;;;;;;35.45;7.22;;;10.90;30.00;;;;;;5062696;28;20408;-60
2020/12/24 11:39:26;;;;;;;25.27;6.85;;;10.90;31.50;;;;;;5062050;28;20028;-61
2020/12/24 11:41:52;;;;;;;27.27;7.25;;;10.90;32.10;;;;;;5062631;28;20149;-59
2020/12/24 11:44:19;;;;;;;30.90;8.60;;;10.90;31.70;;;;;;5065045;28;20066;-61
2020/12/24 11:46:46;;;;;;;27.10;6.15;;;10.80;31.40;;;;;;5072407;28;20029;-59
2020/12/24 11:49:12;;;;;;;22.33;6.22;;;10.80;31.40;;;;;;5068295;28;20559;-58
2020/12/24 11:51:39;;;;;;;21.60;5.68;;;10.80;30.50;;;;;;5064940;28;20410;-59
2020/12/24 11:54:06;;;;;;;28.60;5.10;;;10.80;30.80;;;;;;5064064;28;20119;-61
2020/12/24 11:56:32;;;;;;;;;;;10.80;30.40;;;;;;5065570;28;20483;-60
2020/12/24 11:58:58;;;;;;;19.63;4.53;;;10.70;31.00;;;;;;5062488;28;19929;-59
2020/12/24 12:01:25;;;;;;;;;;;10.80;31.70;;;;;;5063475;28;20120;-58
2020/12/24 12:03:52;;;;;;;33.63;5.28;;;10.70;31.20;;;;;;5065102;28;20288;-59
2020/12/24 12:06:19;;;;;;;32.47;4.82;;;10.70;31.30;;;;;;5064920;28;20524;-59
2020/12/24 12:08:47;;;;;;;15.20;4.43;;;10.70;31.30;;;;;;5068016;28;20497;-59
2020/12/24 12:11:15;;;;;;;30.05;4.72;;;10.70;31.00;;;;;;5063361;28;20038;-58
2020/12/24 12:13:41;;;;;;;23.63;4.97;;;10.70;30.40;;;;;;5064348;28;20064;-59
2020/12/24 12:16:08;;;;;;;26.52;4.72;;;10.60;30.60;;;;;;5069356;28;20062;-60
2020/12/24 12:18:36;;;;;;;27.70;4.68;;;10.70;30.60;;;;;;5067094;28;20036;-62
2020/12/24 12:21:06;;;;;;;20.02;4.63;;;10.70;30.80;;;;;;5064366;28;20042;-60
2020/12/24 12:23:33;;;;;;;26.65;4.32;;;10.70;31.90;;;;;;5062900;28;20078;-60
2020/12/24 12:26:02;;;;;;;26.95;4.45;;;10.70;31.80;;;;;;5066530;28;20034;-60
2020/12/24 12:28:29;;;;;;;29.98;4.68;;;10.70;32.20;;;;;;5069871;28;20149;-59
2020/12/24 12:30:55;;;;;;;;;;;10.70;32.10;;;;;;5064974;28;20056;-61
2020/12/24 12:33:21;;;;;;;26.10;4.40;;;10.60;31.70;;;;;;5068841;28;19946;-60
2020/12/24 12:35:48;;;;;;;32.38;4.55;;;10.60;32.30;;;;;;5067624;28;20076;-60
2020/12/24 12:38:15;;;;;;;;;;;10.60;33.10;;;;;;5067712;28;20036;-61
2020/12/24 12:40:42;;;;;;;19.38;4.38;;;10.50;32.80;;;;;;5066061;28;19926;-60
2020/12/24 12:43:08;;;;;;;;;;;10.60;33.00;;;;;;5068010;28;20096;-59
2020/12/24 12:45:34;;;;;;;20.50;4.15;;;10.50;33.50;;;;;;5067354;28;19928;-60
2020/12/24 12:48:01;;;;;;;20.77;3.95;;;10.50;34.30;;;;;;5070165;28;20506;-60
2020/12/24 12:50:27;;;;;;;25.05;4.70;;;10.40;34.30;;;;;;5069436;28;20472;-60
2020/12/24 12:52:54;;;;;;;;;;;10.50;33.90;;;;;;5069086;28;20521;-62
2020/12/24 12:55:20;;;;;;;25.95;4.20;;;10.40;34.30;;;;;;5068874;28;20361;-60
2020/12/24 12:57:47;;;;;;;28.88;4.10;;;10.30;33.60;;;;;;5064421;28;20041;-58
2020/12/24 13:00:13;;;;;;;27.67;4.85;;;10.40;33.90;;;;;;5067405;28;20043;-59